M/V Panforce — D5AG6 — position and weather

sailwx.info

Track history (hours):
 
Tides and Currents Weather Stations Pressure Air Temp Water Temp Dewpoint Dewpoint Depression Visibility Wind Speed Wind Dir Waves Ship Positions

M/V Panforce

Last reported at 2017-Dec-17 23:47 UTC. Time now 2017-Dec-18 14:51 UTC.
Position N 57°47' E 010°22'.

Length 169 m; draft 9.4 m.

Type: Cargo ship. MMSI: 636015371.

Date/timePositionNaut miles runAvg speedWind from/ knotsBaromVisibWave heightAir tempDewpointWater temp
2017-Dec-17 23:47N 57°47' E 010°22'310.3
2017-Dec-17 23:30N 57°48' E 010°27'510.3
2017-Dec-17 23:00N 57°48' E 010°37'510.0
2017-Dec-17 22:30N 57°48' E 010°46'611.1
2017-Dec-17 22:00N 57°43' E 010°47'4 8.3
2017-Dec-17 21:30N 57°41' E 010°40'1 2.3
2017-Dec-17 20:57N 57°41' E 010°37'0 0.0
2017-Dec-17 20:30N 57°41' E 010°37'0 0.0
2017-Dec-17 20:00N 57°41' E 010°37'0 0.0
2017-Dec-17 19:27N 57°41' E 010°37'0 0.0
2017-Dec-17 19:00N 57°41' E 010°37'0 0.0
2017-Dec-17 18:30N 57°41' E 010°37'0 0.0
2017-Dec-17 18:00N 57°41' E 010°37'0 0.3
2017-Dec-17 17:28N 57°41' E 010°37'2 3.5
2017-Dec-17 17:00N 57°40' E 010°40'3 7.0
2017-Dec-17 16:30N 57°37' E 010°44'510.0
2017-Dec-17 16:00N 57°36' E 010°53'510.4
2017-Dec-17 15:30N 57°35' E 011°03'510.7
2017-Dec-17 15:00N 57°34' E 011°13'611.1
2017-Dec-17 14:30N 57°31' E 011°21'611.2
2017-Dec-17 14:00N 57°26' E 011°27'611.6
2017-Dec-17 13:30N 57°21' E 011°31'611.6
2017-Dec-17 13:00N 57°15' E 011°35'612.0
2017-Dec-17 12:30N 57°10' E 011°38'612.0
2017-Dec-17 12:00N 57°04' E 011°42'611.8
2017-Dec-17 11:30N 56°59' E 011°46'1411.3
2017-Dec-17 10:16N 56°46' E 011°54'311.3
2017-Dec-17 10:00N 56°44' E 011°50'86 9.3
2017-Dec-17 00:45N 55°22' E 011°02'310.5
2017-Dec-17 00:27N 55°19' E 011°03'510.8
2017-Dec-17 00:00N 55°14' E 011°06'510.1
2017-Dec-16 23:29N 55°09' E 011°03'610.9
2017-Dec-16 22:59N 55°04' E 011°02'510.8
2017-Dec-16 22:30N 54°59' E 010°59'611.6
2017-Dec-16 22:00N 54°55' E 010°52'612.0
2017-Dec-16 21:30N 54°49' E 010°50'611.6
2017-Dec-16 21:00N 54°44' E 010°47'4 8.1
2017-Dec-16 20:30N 54°40' E 010°49'510.1
2017-Dec-16 20:00N 54°37' E 010°56'510.5
2017-Dec-16 19:30N 54°36' E 011°05'510.6
2017-Dec-16 19:00N 54°35' E 011°14'510.9
2017-Dec-16 18:30N 54°32' E 011°23'510.7
2017-Dec-16 18:00N 54°30' E 011°31'510.7
2017-Dec-16 17:30N 54°28' E 011°39'510.3
2017-Dec-16 17:00N 54°26' E 011°48'510.7
2017-Dec-16 16:30N 54°26' E 011°57'511.0
2017-Dec-16 16:00N 54°27' E 012°06'510.0
2017-Dec-16 15:30N 54°30' E 012°12'611.4
2017-Dec-16 15:00N 54°36' E 012°14'510.9
2017-Dec-16 14:30N 54°40' E 012°21'5911.1
2017-Dec-16 09:13N 55°02' E 013°55'310.7
2017-Dec-16 08:56N 55°03' E 014°00'610.7
2017-Dec-16 08:25N 55°07' E 014°07'510.8
2017-Dec-16 08:00N 55°10' E 014°12'710.9
2017-Dec-16 07:24N 55°15' E 014°20'411.2
2017-Dec-16 07:00N 55°19' E 014°24'611.3
2017-Dec-16 06:30N 55°23' E 014°30'610.8
2017-Dec-16 05:59N 55°27' E 014°37'511.1
2017-Dec-16 05:30N 55°29' E 014°46'711.1
2017-Dec-16 04:54N 55°32' E 014°56'411.1
2017-Dec-16 04:30N 55°34' E 015°03'511.0
2017-Dec-16 04:00N 55°37' E 015°12'511.0
2017-Dec-16 03:30N 55°39' E 015°21'611.0
2017-Dec-16 03:00N 55°40' E 015°31'611.2
2017-Dec-16 02:30N 55°41' E 015°40'611.4
2017-Dec-16 02:00N 55°43' E 015°50'611.1
2017-Dec-16 01:30N 55°44' E 015°59'611.1
2017-Dec-16 01:01N 55°46' E 016°09'611.0
2017-Dec-16 00:30N 55°47' E 016°19'510.9
2017-Dec-16 00:00N 55°48' E 016°28'510.7
2017-Dec-15 23:30N 55°49' E 016°37'341 8.7
2017-Dec-14 08:12N 59°46' E 024°18'210.3
2017-Dec-14 08:01N 59°47' E 024°22'611.2
2017-Dec-14 07:31N 59°48' E 024°33'510.5
2017-Dec-14 07:01N 59°49' E 024°43'510.1
2017-Dec-14 06:30N 59°50' E 024°53'5 9.6
2017-Dec-14 06:00N 59°51' E 025°02'510.1
2017-Dec-14 05:30N 59°52' E 025°12'510.0
2017-Dec-14 05:00N 59°53' E 025°22'2610.3
2017-Dec-14 02:30N 59°59' E 026°12'5 9.9
2017-Dec-14 02:00N 59°60' E 026°22'5 9.9
2017-Dec-14 01:31N 60°01' E 026°31'5 9.8
2017-Dec-14 01:00N 60°01' E 026°41'510.3
2017-Dec-14 00:30N 60°00' E 026°51'510.0
2017-Dec-14 00:00N 59°59' E 027°01'5 9.8
2017-Dec-13 23:30N 60°01' E 027°10'5 9.9
2017-Dec-13 23:01N 60°04' E 027°18'510.0
2017-Dec-13 22:31N 60°07' E 027°27'510.2
2017-Dec-13 21:59N 60°09' E 027°36'4 9.0
2017-Dec-13 21:30N 60°11' E 027°44'5 9.2
2017-Dec-13 21:00N 60°11' E 027°53'5 9.4
2017-Dec-13 20:30N 60°10' E 028°02'510.2
2017-Dec-13 20:00N 60°09' E 028°12'510.1
2017-Dec-13 19:30N 60°06' E 028°21'510.4
2017-Dec-13 19:00N 60°04' E 028°30'5 9.8
2017-Dec-13 18:30N 60°04' E 028°40'510.3
2017-Dec-13 18:00N 60°03' E 028°51'510.5
2017-Dec-13 17:30N 60°03' E 029°01'710.6
2017-Dec-13 16:53N 60°02' E 029°14'16 8.8
2017-Dec-13 15:04N 59°59' E 029°45'0 8.2
2017-Dec-13 15:00N 59°59' E 029°46'5 9.1
2017-Dec-13 14:30N 59°56' E 029°54'5 9.7
2017-Dec-13 14:00N 59°55' E 030°03'4 7.9
2017-Dec-13 13:30N 59°53' E 030°11'1 1.8
2017-Dec-13 12:58N 59°53' E 030°12'0 0.0
2017-Dec-13 12:28N 59°53' E 030°12'0 0.0
2017-Dec-13 11:58N 59°53' E 030°12'0 0.0
2017-Dec-13 11:28N 59°53' E 030°12'0 0.0
2017-Dec-13 10:58N 59°53' E 030°12'0 0.0
2017-Dec-13 10:28N 59°53' E 030°12'0 0.0
2017-Dec-13 09:58N 59°53' E 030°12'0 0.0
2017-Dec-13 09:28N 59°53' E 030°12'0 0.0
2017-Dec-13 08:58N 59°53' E 030°12'0 0.0
2017-Dec-13 08:28N 59°53' E 030°12'0 0.0
2017-Dec-13 07:58N 59°53' E 030°12'0 0.0
2017-Dec-13 07:28N 59°53' E 030°12'0 0.0
2017-Dec-13 06:58N 59°53' E 030°12'0 0.0
2017-Dec-13 06:28N 59°53' E 030°12'0 0.0
2017-Dec-13 05:58N 59°53' E 030°12'0 0.0
2017-Dec-13 05:28N 59°53' E 030°12'0 0.0
2017-Dec-13 04:58N 59°53' E 030°12'0 0.0
2017-Dec-13 04:28N 59°53' E 030°12'0 0.0
2017-Dec-13 03:58N 59°53' E 030°12'0 0.0
2017-Dec-13 03:28N 59°53' E 030°12'0 0.0
2017-Dec-13 02:58N 59°53' E 030°12'0 0.0
2017-Dec-13 02:28N 59°53' E 030°12'0 0.0
2017-Dec-13 01:58N 59°53' E 030°12'0 0.0
2017-Dec-13 01:25N 59°53' E 030°12'0 0.0
2017-Dec-13 00:58N 59°53' E 030°12'0 0.0
2017-Dec-13 00:28N 59°53' E 030°12'0 0.0
2017-Dec-12 23:58N 59°53' E 030°12'0 0.0
2017-Dec-12 23:28N 59°53' E 030°12'0 0.0
2017-Dec-12 22:58N 59°53' E 030°12'0 0.0
2017-Dec-12 22:28N 59°53' E 030°12'0 0.0
2017-Dec-12 21:58N 59°53' E 030°12'0 0.0
2017-Dec-12 21:28N 59°53' E 030°12'0 0.0
2017-Dec-12 20:58N 59°53' E 030°12'0 0.0
2017-Dec-12 20:28N 59°53' E 030°12'0 0.0
2017-Dec-12 19:58N 59°53' E 030°12'0 0.0
2017-Dec-12 19:28N 59°53' E 030°12'0 0.0
2017-Dec-12 18:58N 59°53' E 030°12'0 0.0
2017-Dec-12 18:28N 59°53' E 030°12'0 0.0
2017-Dec-12 17:58N 59°53' E 030°12'0 0.0
2017-Dec-12 17:28N 59°53' E 030°12'0 0.0
2017-Dec-12 16:58N 59°53' E 030°12'0 0.0
2017-Dec-12 16:28N 59°53' E 030°12'0 0.0
2017-Dec-12 15:58N 59°53' E 030°12'0 0.0
2017-Dec-12 15:28N 59°53' E 030°12'0 0.0
2017-Dec-12 14:58N 59°53' E 030°12'0 0.0
2017-Dec-12 14:28N 59°53' E 030°12'0 0.0
2017-Dec-12 13:58N 59°53' E 030°12'0 0.0
2017-Dec-12 13:28N 59°53' E 030°12'0 0.0
2017-Dec-12 12:58N 59°53' E 030°12'0 0.0
2017-Dec-12 12:19N 59°53' E 030°12'0 0.0
2017-Dec-12 11:58N 59°53' E 030°12'0 0.0
2017-Dec-12 11:25N 59°53' E 030°12'0 0.0
2017-Dec-12 10:58N 59°53' E 030°12'0 0.0
2017-Dec-12 10:28N 59°53' E 030°12'0 0.0
2017-Dec-12 09:55N 59°53' E 030°12'0 0.0
2017-Dec-12 09:28N 59°53' E 030°12'0 0.0
2017-Dec-12 08:58N 59°53' E 030°12'0 0.0
2017-Dec-12 08:28N 59°53' E 030°12'0 0.0
2017-Dec-12 07:58N 59°53' E 030°12'0 0.0
2017-Dec-12 07:28N 59°53' E 030°12'0 0.0
2017-Dec-12 06:58N 59°53' E 030°12'0 0.0
2017-Dec-12 06:28N 59°53' E 030°12'0 0.0
2017-Dec-12 05:58N 59°53' E 030°12'0 0.0
2017-Dec-12 05:28N 59°53' E 030°12'0 0.0
2017-Dec-12 04:58N 59°53' E 030°12'0 0.0
2017-Dec-12 04:28N 59°53' E 030°12'0 0.0
2017-Dec-12 03:58N 59°53' E 030°12'0 0.0
2017-Dec-12 03:28N 59°53' E 030°12'0 0.0
2017-Dec-12 02:58N 59°53' E 030°12'0 0.0
2017-Dec-12 02:28N 59°53' E 030°12'0 0.0
2017-Dec-12 01:58N 59°53' E 030°12'0 0.0
2017-Dec-12 01:28N 59°53' E 030°12'0 0.0
2017-Dec-12 00:58N 59°53' E 030°12'0 0.0
2017-Dec-12 00:28N 59°53' E 030°12'0 0.0
2017-Dec-11 23:58N 59°53' E 030°12'0 0.0
2017-Dec-11 23:28N 59°53' E 030°12'0 0.0
2017-Dec-11 22:55N 59°53' E 030°12'0 0.0
2017-Dec-11 22:28N 59°53' E 030°12'0 0.0
2017-Dec-11 21:58N 59°53' E 030°12'0 0.0
2017-Dec-11 21:28N 59°53' E 030°12'0 0.0
2017-Dec-11 20:58N 59°53' E 030°12'0 0.0
2017-Dec-11 20:28N 59°53' E 030°12'0 0.0
2017-Dec-11 19:58N 59°53' E 030°12'0 0.0
2017-Dec-11 19:28N 59°53' E 030°12'0 0.0
2017-Dec-11 18:58N 59°53' E 030°12'0 0.0
2017-Dec-11 18:28N 59°53' E 030°12'0 0.0
2017-Dec-11 17:58N 59°53' E 030°12'0 0.0
2017-Dec-11 17:28N 59°53' E 030°12'0 0.0
2017-Dec-11 16:58N 59°53' E 030°12'0 0.0
2017-Dec-11 16:28N 59°53' E 030°12'0 0.0
2017-Dec-11 15:55N 59°53' E 030°12'0 0.0
2017-Dec-11 15:28N 59°53' E 030°12'0 0.0
2017-Dec-11 14:58N 59°53' E 030°12'0 0.0
2017-Dec-11 14:28N 59°53' E 030°12'0 0.0
2017-Dec-11 13:58N 59°53' E 030°12'0 0.0
2017-Dec-11 13:28N 59°53' E 030°12'0 0.0
2017-Dec-11 12:58N 59°53' E 030°12'0 0.0
2017-Dec-11 12:28N 59°53' E 030°12'0 0.0
2017-Dec-11 11:58N 59°53' E 030°12'0 0.0
2017-Dec-11 11:28N 59°53' E 030°12'0 0.0
2017-Dec-11 10:58N 59°53' E 030°12'0 0.0
2017-Dec-11 10:28N 59°53' E 030°12'0 0.0
2017-Dec-11 09:58N 59°53' E 030°12'0 0.0
2017-Dec-11 09:28N 59°53' E 030°12'0 0.0
2017-Dec-11 08:58N 59°53' E 030°12'0 0.0
2017-Dec-11 08:28N 59°53' E 030°12'0 0.0
2017-Dec-11 07:58N 59°53' E 030°12'0 0.0
2017-Dec-11 07:28N 59°53' E 030°12'0 0.0
2017-Dec-11 06:58N 59°53' E 030°12'0 0.0
2017-Dec-11 06:28N 59°53' E 030°12'0 0.0
2017-Dec-11 05:58N 59°53' E 030°12'0 0.0
2017-Dec-11 05:28N 59°53' E 030°12'0 0.0
2017-Dec-11 04:58N 59°53' E 030°12'0 0.0
2017-Dec-11 04:28N 59°53' E 030°12'0 0.0
2017-Dec-11 03:58N 59°53' E 030°12'0 0.0
2017-Dec-11 03:28N 59°53' E 030°12'0 0.0
2017-Dec-11 02:58N 59°53' E 030°12'0 0.0
2017-Dec-11 02:28N 59°53' E 030°12'0 0.0
2017-Dec-11 01:58N 59°53' E 030°12'0 0.0
2017-Dec-11 01:28N 59°53' E 030°12'0 0.0
2017-Dec-11 00:58N 59°53' E 030°12'0 0.0
2017-Dec-11 00:28N 59°53' E 030°12'0 0.0
2017-Dec-10 23:58N 59°53' E 030°12'0 0.0
2017-Dec-10 23:28N 59°53' E 030°12'0 0.0
2017-Dec-10 22:58N 59°53' E 030°12'0 0.0
2017-Dec-10 22:28N 59°53' E 030°12'0 0.0
2017-Dec-10 21:58N 59°53' E 030°12'0 0.0
2017-Dec-10 21:28N 59°53' E 030°12'0 0.0
2017-Dec-10 20:58N 59°53' E 030°12'0 0.0
2017-Dec-10 20:28N 59°53' E 030°12'0 0.0
2017-Dec-10 19:58N 59°53' E 030°12'0 0.0
2017-Dec-10 19:28N 59°53' E 030°12'0 0.0
2017-Dec-10 18:58N 59°53' E 030°12'0 0.0
2017-Dec-10 18:28N 59°53' E 030°12'0 0.0
2017-Dec-10 17:58N 59°53' E 030°12'0 0.0
2017-Dec-10 17:28N 59°53' E 030°12'0 0.0
2017-Dec-10 16:58N 59°53' E 030°12'0 0.0
2017-Dec-10 16:28N 59°53' E 030°12'0 0.0
2017-Dec-10 15:58N 59°53' E 030°12'0 0.0
2017-Dec-10 15:28N 59°53' E 030°12'0 0.0
2017-Dec-10 14:58N 59°53' E 030°12'0 0.0
2017-Dec-10 14:28N 59°53' E 030°12'0 0.0
2017-Dec-10 13:58N 59°53' E 030°12'0 0.0
2017-Dec-10 13:28N 59°53' E 030°12'0 0.0
2017-Dec-10 12:58N 59°53' E 030°12'0 0.0
2017-Dec-10 12:28N 59°53' E 030°12'0 0.0
2017-Dec-10 11:58N 59°53' E 030°12'0 0.0
2017-Dec-10 11:28N 59°53' E 030°12'0 0.0
2017-Dec-10 10:58N 59°53' E 030°12'0 0.0
2017-Dec-10 10:28N 59°53' E 030°12'0 0.0
2017-Dec-10 09:58N 59°53' E 030°12'0 0.0
2017-Dec-10 09:28N 59°53' E 030°12'0 0.0
2017-Dec-10 08:58N 59°53' E 030°12'0 0.0
2017-Dec-10 08:28N 59°53' E 030°12'0 0.0
2017-Dec-10 07:58N 59°53' E 030°12'0 0.0
2017-Dec-10 07:28N 59°53' E 030°12'0 0.0
2017-Dec-10 06:58N 59°53' E 030°12'0 0.0
2017-Dec-10 06:28N 59°53' E 030°12'0 0.0
2017-Dec-10 05:58N 59°53' E 030°12'0 0.0
2017-Dec-10 05:28N 59°53' E 030°12'0 0.0
2017-Dec-10 04:58N 59°53' E 030°12'0 0.0
2017-Dec-10 04:28N 59°53' E 030°12'0 0.0
2017-Dec-10 03:58N 59°53' E 030°12'0 0.0
2017-Dec-10 03:28N 59°53' E 030°12'0 0.0
2017-Dec-10 02:58N 59°53' E 030°12'0 0.0
2017-Dec-10 02:28N 59°53' E 030°12'0 0.0
2017-Dec-10 01:58N 59°53' E 030°12'0 0.0
2017-Dec-10 01:28N 59°53' E 030°12'0 0.0
2017-Dec-10 00:58N 59°53' E 030°12'0 0.0
2017-Dec-10 00:28N 59°53' E 030°12'0 0.0
2017-Dec-09 23:58N 59°53' E 030°12'0 0.0
2017-Dec-09 23:28N 59°53' E 030°12'0 0.0
2017-Dec-09 22:58N 59°53' E 030°12'0 0.0
2017-Dec-09 22:28N 59°53' E 030°12'0 0.0
2017-Dec-09 21:58N 59°53' E 030°12'0 0.0
2017-Dec-09 21:28N 59°53' E 030°12'0 0.0
2017-Dec-09 20:58N 59°53' E 030°12'0 0.0
2017-Dec-09 20:28N 59°53' E 030°12'0 0.0
2017-Dec-09 19:58N 59°53' E 030°12'0 0.0
2017-Dec-09 19:28N 59°53' E 030°12'0 0.0
2017-Dec-09 18:58N 59°53' E 030°12'0 0.0
2017-Dec-09 18:28N 59°53' E 030°12'0 0.0
2017-Dec-09 17:58N 59°53' E 030°12'0 0.0
2017-Dec-09 17:28N 59°53' E 030°12'0 0.0
2017-Dec-09 16:58N 59°53' E 030°12'0 0.0
2017-Dec-09 16:28N 59°53' E 030°12'0 0.0
2017-Dec-09 15:58N 59°53' E 030°12'0 0.2
2017-Dec-09 15:30N 59°53' E 030°12'2 4.0
2017-Dec-09 15:01N 59°54' E 030°08'4 8.3
2017-Dec-09 14:31N 59°55' E 030°01'611.4
2017-Dec-09 14:01N 59°57' E 029°50'5 9.4
2017-Dec-09 13:31N 59°59' E 029°42'9 1.8
2017-Dec-09 08:15N 60°03' E 029°24'0 0.0
2017-Dec-09 05:45N 60°03' E 029°24'0 0.0
2017-Dec-09 05:27N 60°03' E 029°24'8 2.4
2017-Dec-09 02:22N 60°02' E 029°09'412.3
2017-Dec-09 02:00N 60°02' E 029°00'612.7
2017-Dec-09 01:30N 60°02' E 028°48'713.8
2017-Dec-09 01:00N 60°02' E 028°34'713.0
2017-Dec-09 00:30N 60°04' E 028°22'713.2
2017-Dec-09 00:00N 60°08' E 028°10'713.4
2017-Dec-08 23:30N 60°09' E 027°57'613.0
2017-Dec-08 23:00N 60°10' E 027°44'714.1
2017-Dec-08 22:31N 60°06' E 027°32'714.2
2017-Dec-08 22:01N 60°03' E 027°20'713.9
2017-Dec-08 21:31N 59°59' E 027°08'612.8
2017-Dec-08 21:00N 59°59' E 026°55'713.6
2017-Dec-08 20:30N 59°60' E 026°42'713.9
2017-Dec-08 20:00N 59°58' E 026°28'713.9
2017-Dec-08 19:30N 59°56' E 026°15'1514.2
2017-Dec-08 18:27N 59°52' E 025°46'914.4
2017-Dec-08 17:49N 59°49' E 025°29'413.9
2017-Dec-08 17:31N 59°49' E 025°20'713.8
2017-Dec-08 17:00N 59°48' E 025°07'714.1
2017-Dec-08 16:30N 59°46' E 024°53'714.5
2017-Dec-08 16:00N 59°45' E 024°39'714.4
2017-Dec-08 15:30N 59°43' E 024°25'714.3
2017-Dec-08 15:00N 59°41' E 024°11'814.3
2017-Dec-08 14:29N 59°39' E 023°57'  
Track history (hours):
 
Tides and Currents Weather Stations Pressure Air Temp Water Temp Dewpoint Dewpoint Depression Visibility Wind Speed Wind Dir Waves Ship Positions

M/V Panforce

Last reported at 2017-Dec-17 23:47 UTC. Time now 2017-Dec-18 14:51 UTC.
Position N 57°47' E 010°22'.

Length 169 m; draft 9.4 m.

Type: Cargo ship. MMSI: 636015371.

Date/timePositionNaut miles runAvg speedWind from/ knotsBaromVisibWave heightAir tempDewpointWater temp
2017-Dec-17 23:47N 57°47' E 010°22'310.3
2017-Dec-17 23:30N 57°48' E 010°27'510.3
2017-Dec-17 23:00N 57°48' E 010°37'510.0
2017-Dec-17 22:30N 57°48' E 010°46'611.1
2017-Dec-17 22:00N 57°43' E 010°47'4 8.3
2017-Dec-17 21:30N 57°41' E 010°40'1 2.3
2017-Dec-17 20:57N 57°41' E 010°37'0 0.0
2017-Dec-17 20:30N 57°41' E 010°37'0 0.0
2017-Dec-17 20:00N 57°41' E 010°37'0 0.0
2017-Dec-17 19:27N 57°41' E 010°37'0 0.0
2017-Dec-17 19:00N 57°41' E 010°37'0 0.0
2017-Dec-17 18:30N 57°41' E 010°37'0 0.0
2017-Dec-17 18:00N 57°41' E 010°37'0 0.3
2017-Dec-17 17:28N 57°41' E 010°37'2 3.5
2017-Dec-17 17:00N 57°40' E 010°40'3 7.0
2017-Dec-17 16:30N 57°37' E 010°44'510.0
2017-Dec-17 16:00N 57°36' E 010°53'510.4
2017-Dec-17 15:30N 57°35' E 011°03'510.7
2017-Dec-17 15:00N 57°34' E 011°13'611.1
2017-Dec-17 14:30N 57°31' E 011°21'611.2
2017-Dec-17 14:00N 57°26' E 011°27'611.6
2017-Dec-17 13:30N 57°21' E 011°31'611.6
2017-Dec-17 13:00N 57°15' E 011°35'612.0
2017-Dec-17 12:30N 57°10' E 011°38'612.0
2017-Dec-17 12:00N 57°04' E 011°42'611.8
2017-Dec-17 11:30N 56°59' E 011°46'1411.3
2017-Dec-17 10:16N 56°46' E 011°54'311.3
2017-Dec-17 10:00N 56°44' E 011°50'86 9.3
2017-Dec-17 00:45N 55°22' E 011°02'310.5
2017-Dec-17 00:27N 55°19' E 011°03'510.8
2017-Dec-17 00:00N 55°14' E 011°06'510.1
2017-Dec-16 23:29N 55°09' E 011°03'610.9
2017-Dec-16 22:59N 55°04' E 011°02'510.8
2017-Dec-16 22:30N 54°59' E 010°59'611.6
2017-Dec-16 22:00N 54°55' E 010°52'612.0
2017-Dec-16 21:30N 54°49' E 010°50'611.6
2017-Dec-16 21:00N 54°44' E 010°47'4 8.1
2017-Dec-16 20:30N 54°40' E 010°49'510.1
2017-Dec-16 20:00N 54°37' E 010°56'510.5
2017-Dec-16 19:30N 54°36' E 011°05'510.6
2017-Dec-16 19:00N 54°35' E 011°14'510.9
2017-Dec-16 18:30N 54°32' E 011°23'510.7
2017-Dec-16 18:00N 54°30' E 011°31'510.7
2017-Dec-16 17:30N 54°28' E 011°39'510.3
2017-Dec-16 17:00N 54°26' E 011°48'510.7
2017-Dec-16 16:30N 54°26' E 011°57'511.0
2017-Dec-16 16:00N 54°27' E 012°06'510.0
2017-Dec-16 15:30N 54°30' E 012°12'611.4
2017-Dec-16 15:00N 54°36' E 012°14'510.9
2017-Dec-16 14:30N 54°40' E 012°21'5911.1
2017-Dec-16 09:13N 55°02' E 013°55'310.7
2017-Dec-16 08:56N 55°03' E 014°00'610.7
2017-Dec-16 08:25N 55°07' E 014°07'510.8
2017-Dec-16 08:00N 55°10' E 014°12'710.9
2017-Dec-16 07:24N 55°15' E 014°20'411.2
2017-Dec-16 07:00N 55°19' E 014°24'611.3
2017-Dec-16 06:30N 55°23' E 014°30'610.8
2017-Dec-16 05:59N 55°27' E 014°37'511.1
2017-Dec-16 05:30N 55°29' E 014°46'711.1
2017-Dec-16 04:54N 55°32' E 014°56'411.1
2017-Dec-16 04:30N 55°34' E 015°03'511.0
2017-Dec-16 04:00N 55°37' E 015°12'511.0
2017-Dec-16 03:30N 55°39' E 015°21'611.0
2017-Dec-16 03:00N 55°40' E 015°31'611.2
2017-Dec-16 02:30N 55°41' E 015°40'611.4
2017-Dec-16 02:00N 55°43' E 015°50'611.1
2017-Dec-16 01:30N 55°44' E 015°59'611.1
2017-Dec-16 01:01N 55°46' E 016°09'611.0
2017-Dec-16 00:30N 55°47' E 016°19'510.9
2017-Dec-16 00:00N 55°48' E 016°28'510.7
2017-Dec-15 23:30N 55°49' E 016°37'341 8.7
2017-Dec-14 08:12N 59°46' E 024°18'210.3
2017-Dec-14 08:01N 59°47' E 024°22'611.2
2017-Dec-14 07:31N 59°48' E 024°33'510.5
2017-Dec-14 07:01N 59°49' E 024°43'510.1
2017-Dec-14 06:30N 59°50' E 024°53'5 9.6
2017-Dec-14 06:00N 59°51' E 025°02'510.1
2017-Dec-14 05:30N 59°52' E 025°12'510.0
2017-Dec-14 05:00N 59°53' E 025°22'2610.3
2017-Dec-14 02:30N 59°59' E 026°12'5 9.9
2017-Dec-14 02:00N 59°60' E 026°22'5 9.9
2017-Dec-14 01:31N 60°01' E 026°31'5 9.8
2017-Dec-14 01:00N 60°01' E 026°41'510.3
2017-Dec-14 00:30N 60°00' E 026°51'510.0
2017-Dec-14 00:00N 59°59' E 027°01'5 9.8
2017-Dec-13 23:30N 60°01' E 027°10'5 9.9
2017-Dec-13 23:01N 60°04' E 027°18'510.0
2017-Dec-13 22:31N 60°07' E 027°27'510.2
2017-Dec-13 21:59N 60°09' E 027°36'4 9.0
2017-Dec-13 21:30N 60°11' E 027°44'5 9.2
2017-Dec-13 21:00N 60°11' E 027°53'5 9.4
2017-Dec-13 20:30N 60°10' E 028°02'510.2
2017-Dec-13 20:00N 60°09' E 028°12'510.1
2017-Dec-13 19:30N 60°06' E 028°21'510.4
2017-Dec-13 19:00N 60°04' E 028°30'5 9.8
2017-Dec-13 18:30N 60°04' E 028°40'510.3
2017-Dec-13 18:00N 60°03' E 028°51'510.5
2017-Dec-13 17:30N 60°03' E 029°01'710.6
2017-Dec-13 16:53N 60°02' E 029°14'16 8.8
2017-Dec-13 15:04N 59°59' E 029°45'0 8.2
2017-Dec-13 15:00N 59°59' E 029°46'5 9.1
2017-Dec-13 14:30N 59°56' E 029°54'5 9.7
2017-Dec-13 14:00N 59°55' E 030°03'4 7.9
2017-Dec-13 13:30N 59°53' E 030°11'1 1.8
2017-Dec-13 12:58N 59°53' E 030°12'0 0.0
2017-Dec-13 12:28N 59°53' E 030°12'0 0.0
2017-Dec-13 11:58N 59°53' E 030°12'0 0.0
2017-Dec-13 11:28N 59°53' E 030°12'0 0.0
2017-Dec-13 10:58N 59°53' E 030°12'0 0.0
2017-Dec-13 10:28N 59°53' E 030°12'0 0.0
2017-Dec-13 09:58N 59°53' E 030°12'0 0.0
2017-Dec-13 09:28N 59°53' E 030°12'0 0.0
2017-Dec-13 08:58N 59°53' E 030°12'0 0.0
2017-Dec-13 08:28N 59°53' E 030°12'0 0.0
2017-Dec-13 07:58N 59°53' E 030°12'0 0.0
2017-Dec-13 07:28N 59°53' E 030°12'0 0.0
2017-Dec-13 06:58N 59°53' E 030°12'0 0.0
2017-Dec-13 06:28N 59°53' E 030°12'0 0.0
2017-Dec-13 05:58N 59°53' E 030°12'0 0.0
2017-Dec-13 05:28N 59°53' E 030°12'0 0.0
2017-Dec-13 04:58N 59°53' E 030°12'0 0.0
2017-Dec-13 04:28N 59°53' E 030°12'0 0.0
2017-Dec-13 03:58N 59°53' E 030°12'0 0.0
2017-Dec-13 03:28N 59°53' E 030°12'0 0.0
2017-Dec-13 02:58N 59°53' E 030°12'0 0.0
2017-Dec-13 02:28N 59°53' E 030°12'0 0.0
2017-Dec-13 01:58N 59°53' E 030°12'0 0.0
2017-Dec-13 01:25N 59°53' E 030°12'0 0.0
2017-Dec-13 00:58N 59°53' E 030°12'0 0.0
2017-Dec-13 00:28N 59°53' E 030°12'0 0.0
2017-Dec-12 23:58N 59°53' E 030°12'0 0.0
2017-Dec-12 23:28N 59°53' E 030°12'0 0.0
2017-Dec-12 22:58N 59°53' E 030°12'0 0.0
2017-Dec-12 22:28N 59°53' E 030°12'0 0.0
2017-Dec-12 21:58N 59°53' E 030°12'0 0.0
2017-Dec-12 21:28N 59°53' E 030°12'0 0.0
2017-Dec-12 20:58N 59°53' E 030°12'0 0.0
2017-Dec-12 20:28N 59°53' E 030°12'0 0.0
2017-Dec-12 19:58N 59°53' E 030°12'0 0.0
2017-Dec-12 19:28N 59°53' E 030°12'0 0.0
2017-Dec-12 18:58N 59°53' E 030°12'0 0.0
2017-Dec-12 18:28N 59°53' E 030°12'0 0.0
2017-Dec-12 17:58N 59°53' E 030°12'0 0.0
2017-Dec-12 17:28N 59°53' E 030°12'0 0.0
2017-Dec-12 16:58N 59°53' E 030°12'0 0.0
2017-Dec-12 16:28N 59°53' E 030°12'0 0.0
2017-Dec-12 15:58N 59°53' E 030°12'0 0.0
2017-Dec-12 15:28N 59°53' E 030°12'0 0.0
2017-Dec-12 14:58N 59°53' E 030°12'0 0.0
2017-Dec-12 14:28N 59°53' E 030°12'0 0.0
2017-Dec-12 13:58N 59°53' E 030°12'0 0.0
2017-Dec-12 13:28N 59°53' E 030°12'0 0.0
2017-Dec-12 12:58N 59°53' E 030°12'0 0.0
2017-Dec-12 12:19N 59°53' E 030°12'0 0.0
2017-Dec-12 11:58N 59°53' E 030°12'0 0.0
2017-Dec-12 11:25N 59°53' E 030°12'0 0.0
2017-Dec-12 10:58N 59°53' E 030°12'0 0.0
2017-Dec-12 10:28N 59°53' E 030°12'0 0.0
2017-Dec-12 09:55N 59°53' E 030°12'0 0.0
2017-Dec-12 09:28N 59°53' E 030°12'0 0.0
2017-Dec-12 08:58N 59°53' E 030°12'0 0.0
2017-Dec-12 08:28N 59°53' E 030°12'0 0.0
2017-Dec-12 07:58N 59°53' E 030°12'0 0.0
2017-Dec-12 07:28N 59°53' E 030°12'0 0.0
2017-Dec-12 06:58N 59°53' E 030°12'0 0.0
2017-Dec-12 06:28N 59°53' E 030°12'0 0.0
2017-Dec-12 05:58N 59°53' E 030°12'0 0.0
2017-Dec-12 05:28N 59°53' E 030°12'0 0.0
2017-Dec-12 04:58N 59°53' E 030°12'0 0.0
2017-Dec-12 04:28N 59°53' E 030°12'0 0.0
2017-Dec-12 03:58N 59°53' E 030°12'0 0.0
2017-Dec-12 03:28N 59°53' E 030°12'0 0.0
2017-Dec-12 02:58N 59°53' E 030°12'0 0.0
2017-Dec-12 02:28N 59°53' E 030°12'0 0.0
2017-Dec-12 01:58N 59°53' E 030°12'0 0.0
2017-Dec-12 01:28N 59°53' E 030°12'0 0.0
2017-Dec-12 00:58N 59°53' E 030°12'0 0.0
2017-Dec-12 00:28N 59°53' E 030°12'0 0.0
2017-Dec-11 23:58N 59°53' E 030°12'0 0.0
2017-Dec-11 23:28N 59°53' E 030°12'0 0.0
2017-Dec-11 22:55N 59°53' E 030°12'0 0.0
2017-Dec-11 22:28N 59°53' E 030°12'0 0.0
2017-Dec-11 21:58N 59°53' E 030°12'0 0.0
2017-Dec-11 21:28N 59°53' E 030°12'0 0.0
2017-Dec-11 20:58N 59°53' E 030°12'0 0.0
2017-Dec-11 20:28N 59°53' E 030°12'0 0.0
2017-Dec-11 19:58N 59°53' E 030°12'0 0.0
2017-Dec-11 19:28N 59°53' E 030°12'0 0.0
2017-Dec-11 18:58N 59°53' E 030°12'0 0.0
2017-Dec-11 18:28N 59°53' E 030°12'0 0.0
2017-Dec-11 17:58N 59°53' E 030°12'0 0.0
2017-Dec-11 17:28N 59°53' E 030°12'0 0.0
2017-Dec-11 16:58N 59°53' E 030°12'0 0.0
2017-Dec-11 16:28N 59°53' E 030°12'0 0.0
2017-Dec-11 15:55N 59°53' E 030°12'0 0.0
2017-Dec-11 15:28N 59°53' E 030°12'0 0.0
2017-Dec-11 14:58N 59°53' E 030°12'0 0.0
2017-Dec-11 14:28N 59°53' E 030°12'0 0.0
2017-Dec-11 13:58N 59°53' E 030°12'0 0.0
2017-Dec-11 13:28N 59°53' E 030°12'0 0.0
2017-Dec-11 12:58N 59°53' E 030°12'0 0.0
2017-Dec-11 12:28N 59°53' E 030°12'0 0.0
2017-Dec-11 11:58N 59°53' E 030°12'0 0.0
2017-Dec-11 11:28N 59°53' E 030°12'0 0.0
2017-Dec-11 10:58N 59°53' E 030°12'0 0.0
2017-Dec-11 10:28N 59°53' E 030°12'0 0.0
2017-Dec-11 09:58N 59°53' E 030°12'0 0.0
2017-Dec-11 09:28N 59°53' E 030°12'0 0.0
2017-Dec-11 08:58N 59°53' E 030°12'0 0.0
2017-Dec-11 08:28N 59°53' E 030°12'0 0.0
2017-Dec-11 07:58N 59°53' E 030°12'0 0.0
2017-Dec-11 07:28N 59°53' E 030°12'0 0.0
2017-Dec-11 06:58N 59°53' E 030°12'0 0.0
2017-Dec-11 06:28N 59°53' E 030°12'0 0.0
2017-Dec-11 05:58N 59°53' E 030°12'0 0.0
2017-Dec-11 05:28N 59°53' E 030°12'0 0.0
2017-Dec-11 04:58N 59°53' E 030°12'0 0.0
2017-Dec-11 04:28N 59°53' E 030°12'0 0.0
2017-Dec-11 03:58N 59°53' E 030°12'0 0.0
2017-Dec-11 03:28N 59°53' E 030°12'0 0.0
2017-Dec-11 02:58N 59°53' E 030°12'0 0.0
2017-Dec-11 02:28N 59°53' E 030°12'0 0.0
2017-Dec-11 01:58N 59°53' E 030°12'0 0.0
2017-Dec-11 01:28N 59°53' E 030°12'0 0.0
2017-Dec-11 00:58N 59°53' E 030°12'0 0.0
2017-Dec-11 00:28N 59°53' E 030°12'0 0.0
2017-Dec-10 23:58N 59°53' E 030°12'0 0.0
2017-Dec-10 23:28N 59°53' E 030°12'0 0.0
2017-Dec-10 22:58N 59°53' E 030°12'0 0.0
2017-Dec-10 22:28N 59°53' E 030°12'0 0.0
2017-Dec-10 21:58N 59°53' E 030°12'0 0.0
2017-Dec-10 21:28N 59°53' E 030°12'0 0.0
2017-Dec-10 20:58N 59°53' E 030°12'0 0.0
2017-Dec-10 20:28N 59°53' E 030°12'0 0.0
2017-Dec-10 19:58N 59°53' E 030°12'0 0.0
2017-Dec-10 19:28N 59°53' E 030°12'0 0.0
2017-Dec-10 18:58N 59°53' E 030°12'0 0.0
2017-Dec-10 18:28N 59°53' E 030°12'0 0.0
2017-Dec-10 17:58N 59°53' E 030°12'0 0.0
2017-Dec-10 17:28N 59°53' E 030°12'0 0.0
2017-Dec-10 16:58N 59°53' E 030°12'0 0.0
2017-Dec-10 16:28N 59°53' E 030°12'0 0.0
2017-Dec-10 15:58N 59°53' E 030°12'0 0.0
2017-Dec-10 15:28N 59°53' E 030°12'0 0.0
2017-Dec-10 14:58N 59°53' E 030°12'0 0.0
2017-Dec-10 14:28N 59°53' E 030°12'0 0.0
2017-Dec-10 13:58N 59°53' E 030°12'0 0.0
2017-Dec-10 13:28N 59°53' E 030°12'0 0.0
2017-Dec-10 12:58N 59°53' E 030°12'0 0.0
2017-Dec-10 12:28N 59°53' E 030°12'0 0.0
2017-Dec-10 11:58N 59°53' E 030°12'0 0.0
2017-Dec-10 11:28N 59°53' E 030°12'0 0.0
2017-Dec-10 10:58N 59°53' E 030°12'0 0.0
2017-Dec-10 10:28N 59°53' E 030°12'0 0.0
2017-Dec-10 09:58N 59°53' E 030°12'0 0.0
2017-Dec-10 09:28N 59°53' E 030°12'0 0.0
2017-Dec-10 08:58N 59°53' E 030°12'0 0.0
2017-Dec-10 08:28N 59°53' E 030°12'0 0.0
2017-Dec-10 07:58N 59°53' E 030°12'0 0.0
2017-Dec-10 07:28N 59°53' E 030°12'0 0.0
2017-Dec-10 06:58N 59°53' E 030°12'0 0.0
2017-Dec-10 06:28N 59°53' E 030°12'0 0.0
2017-Dec-10 05:58N 59°53' E 030°12'0 0.0
2017-Dec-10 05:28N 59°53' E 030°12'0 0.0
2017-Dec-10 04:58N 59°53' E 030°12'0 0.0
2017-Dec-10 04:28N 59°53' E 030°12'0 0.0
2017-Dec-10 03:58N 59°53' E 030°12'0 0.0
2017-Dec-10 03:28N 59°53' E 030°12'0 0.0
2017-Dec-10 02:58N 59°53' E 030°12'0 0.0
2017-Dec-10 02:28N 59°53' E 030°12'0 0.0
2017-Dec-10 01:58N 59°53' E 030°12'0 0.0
2017-Dec-10 01:28N 59°53' E 030°12'0 0.0
2017-Dec-10 00:58N 59°53' E 030°12'0 0.0
2017-Dec-10 00:28N 59°53' E 030°12'0 0.0
2017-Dec-09 23:58N 59°53' E 030°12'0 0.0
2017-Dec-09 23:28N 59°53' E 030°12'0 0.0
2017-Dec-09 22:58N 59°53' E 030°12'0 0.0
2017-Dec-09 22:28N 59°53' E 030°12'0 0.0
2017-Dec-09 21:58N 59°53' E 030°12'0 0.0
2017-Dec-09 21:28N 59°53' E 030°12'0 0.0
2017-Dec-09 20:58N 59°53' E 030°12'0 0.0
2017-Dec-09 20:28N 59°53' E 030°12'0 0.0
2017-Dec-09 19:58N 59°53' E 030°12'0 0.0
2017-Dec-09 19:28N 59°53' E 030°12'0 0.0
2017-Dec-09 18:58N 59°53' E 030°12'0 0.0
2017-Dec-09 18:28N 59°53' E 030°12'0 0.0
2017-Dec-09 17:58N 59°53' E 030°12'0 0.0
2017-Dec-09 17:28N 59°53' E 030°12'0 0.0
2017-Dec-09 16:58N 59°53' E 030°12'0 0.0
2017-Dec-09 16:28N 59°53' E 030°12'0 0.0
2017-Dec-09 15:58N 59°53' E 030°12'0 0.2
2017-Dec-09 15:30N 59°53' E 030°12'2 4.0
2017-Dec-09 15:01N 59°54' E 030°08'4 8.3
2017-Dec-09 14:31N 59°55' E 030°01'611.4
2017-Dec-09 14:01N 59°57' E 029°50'5 9.4
2017-Dec-09 13:31N 59°59' E 029°42'9 1.8
2017-Dec-09 08:15N 60°03' E 029°24'0 0.0
2017-Dec-09 05:45N 60°03' E 029°24'0 0.0
2017-Dec-09 05:27N 60°03' E 029°24'8 2.4
2017-Dec-09 02:22N 60°02' E 029°09'412.3
2017-Dec-09 02:00N 60°02' E 029°00'612.7
2017-Dec-09 01:30N 60°02' E 028°48'713.8
2017-Dec-09 01:00N 60°02' E 028°34'713.0
2017-Dec-09 00:30N 60°04' E 028°22'713.2
2017-Dec-09 00:00N 60°08' E 028°10'713.4
2017-Dec-08 23:30N 60°09' E 027°57'613.0
2017-Dec-08 23:00N 60°10' E 027°44'714.1
2017-Dec-08 22:31N 60°06' E 027°32'714.2
2017-Dec-08 22:01N 60°03' E 027°20'713.9
2017-Dec-08 21:31N 59°59' E 027°08'612.8
2017-Dec-08 21:00N 59°59' E 026°55'713.6
2017-Dec-08 20:30N 59°60' E 026°42'713.9
2017-Dec-08 20:00N 59°58' E 026°28'713.9
2017-Dec-08 19:30N 59°56' E 026°15'1514.2
2017-Dec-08 18:27N 59°52' E 025°46'914.4
2017-Dec-08 17:49N 59°49' E 025°29'413.9
2017-Dec-08 17:31N 59°49' E 025°20'713.8
2017-Dec-08 17:00N 59°48' E 025°07'714.1
2017-Dec-08 16:30N 59°46' E 024°53'714.5
2017-Dec-08 16:00N 59°45' E 024°39'714.4
2017-Dec-08 15:30N 59°43' E 024°25'714.3
2017-Dec-08 15:00N 59°41' E 024°11'814.3
2017-Dec-08 14:29N 59°39' E 023°57'  

Dump ship's entire track history